Time;durP1;ratioP1;P1;durP2;ratioP2;P2;SDS_P1;SDS_P2;PMS_P1;PMS_P2;Temp;Humidity;BMP_temperature;BMP_pressure;BME280_temperature;BME280_humidity;BME280_pressure;Samples;Min_cycle;Max_cycle;Signal;HPM_P1;HPM_P2
2021/04/28 00:00:06;;;;;;;15.27;11.30;;;;;;;12.86;61.21;99555.75;5029216;28;20458;-82
2021/04/28 00:02:31;;;;;;;22.35;12.65;;;;;;;12.53;62.68;99549.09;5012058;28;20033;-82
2021/04/28 00:04:56;;;;;;;19.15;13.23;;;;;;;12.66;63.42;99552.28;5015515;28;20551;-83
2021/04/28 00:07:22;;;;;;;18.13;12.45;;;;;;;12.83;63.53;99544.66;5015431;28;20029;-84
2021/04/28 00:09:47;;;;;;;21.70;13.02;;;;;;;12.53;66.20;99538.56;5015582;28;20091;-83
2021/04/28 00:12:12;;;;;;;19.90;13.82;;;;;;;12.49;66.44;99539.81;5051787;23;20053;-82
2021/04/28 00:14:38;;;;;;;22.45;15.02;;;;;;;12.35;68.08;99548.09;5054761;28;20075;-82
2021/04/28 00:17:03;;;;;;;19.05;14.02;;;;;;;12.35;68.49;99540.22;5054452;28;20110;-82
2021/04/28 00:19:29;;;;;;;19.45;13.57;;;;;;;12.29;68.66;99544.22;5054748;28;20029;-82
2021/04/28 00:21:55;;;;;;;22.33;14.80;;;;;;;12.20;68.75;99532.69;5042969;28;20030;-82
2021/04/28 00:24:20;;;;;;;22.25;13.75;;;;;;;12.25;68.79;99541.03;5034872;28;20036;-82
2021/04/28 00:26:46;;;;;;;19.98;13.20;;;;;;;12.29;68.68;99536.31;5034876;28;20420;-82
2021/04/28 00:29:11;;;;;;;20.88;14.88;;;;;;;12.27;69.02;99527.72;5034664;28;20033;-82
2021/04/28 00:31:37;;;;;;;21.77;14.18;;;;;;;12.27;68.88;99535.63;5034240;28;20538;-81
2021/04/28 00:34:03;;;;;;;21.13;14.27;;;;;;;12.33;69.74;99527.19;5034524;28;20021;-81
2021/04/28 00:36:28;;;;;;;21.85;14.68;;;;;;;12.10;70.55;99529.22;5034622;28;20117;-81
2021/04/28 00:38:54;;;;;;;19.83;14.20;;;;;;;12.13;70.56;99521.06;5034553;28;20055;-82
2021/04/28 00:41:19;;;;;;;20.25;13.98;;;;;;;12.16;70.54;99531.28;5034371;28;20494;-82
2021/04/28 00:43:46;;;;;;;19.85;14.45;;;;;;;12.23;70.20;99521.06;5034489;28;20140;-81
2021/04/28 00:46:11;;;;;;;25.85;16.15;;;;;;;11.90;71.65;99536.22;5034188;28;20026;-82
2021/04/28 00:48:37;;;;;;;28.55;17.00;;;;;;;11.91;71.25;99524.75;5034250;28;20036;-81
2021/04/28 00:51:03;;;;;;;20.15;16.13;;;;;;;12.02;71.47;99521.16;5034233;28;20052;-82
2021/04/28 00:53:29;;;;;;;22.80;15.77;;;;;;;12.19;70.46;99517.06;5033994;28;20055;-81
2021/04/28 00:55:56;;;;;;;26.35;16.98;;;;;;;12.14;71.03;99514.00;5034052;28;20053;-81
2021/04/28 00:58:24;;;;;;;22.23;16.20;;;;;;;12.18;70.75;99512.75;5034453;28;20025;-81
2021/04/28 01:00:50;;;;;;;22.60;16.15;;;;;;;12.11;70.58;99512.47;5033011;28;20053;-81
2021/04/28 01:03:20;;;;;;;25.33;16.35;;;;;;;12.08;70.86;99515.38;5033582;28;20025;-81
2021/04/28 01:05:45;;;;;;;25.35;15.40;;;;;;;12.07;70.81;99517.16;5033974;28;20040;-81
2021/04/28 01:08:14;;;;;;;23.58;16.50;;;;;;;11.84;71.24;99519.16;5034051;28;20395;-81
2021/04/28 01:10:40;;;;;;;24.10;17.38;;;;;;;11.87;71.55;99515.44;5034447;28;20045;-81
2021/04/28 01:13:06;;;;;;;23.65;16.13;;;;;;;11.99;70.79;99516.19;5033582;28;20064;-81
2021/04/28 01:15:34;;;;;;;26.05;17.50;;;;;;;11.86;70.89;99527.72;5033694;28;20025;-81
2021/04/28 01:18:00;;;;;;;28.95;18.63;;;;;;;11.72;71.54;99517.59;5033921;28;20113;-81
2021/04/28 01:20:31;;;;;;;27.63;17.98;;;;;;;11.62;72.80;99506.22;5033724;28;20049;-82
2021/04/28 01:22:57;;;;;;;23.80;17.03;;;;;;;11.80;71.14;99504.59;5033082;28;20087;-81
2021/04/28 01:25:25;;;;;;;27.42;16.42;;;;;;;11.76;72.07;99510.28;5033757;28;20476;-82
2021/04/28 01:27:55;;;;;;;24.02;19.30;;;;;;;11.85;71.49;99499.78;5033687;28;20033;-82
2021/04/28 01:30:21;;;;;;;28.55;19.10;;;;;;;11.72;72.00;99491.28;5033681;28;20045;-81
2021/04/28 01:32:50;;;;;;;25.02;17.83;;;;;;;11.78;71.30;99489.94;5032089;28;20057;-81
2021/04/28 01:35:19;;;;;;;27.45;18.63;;;;;;;11.62;72.26;99488.63;5033497;28;20026;-81
2021/04/28 01:37:46;;;;;;;26.73;18.98;;;;;;;11.49;72.09;99485.41;5033179;28;20404;-82
2021/04/28 01:40:13;;;;;;;24.75;16.90;;;;;;;11.59;71.80;99490.69;5032079;28;20021;-82
2021/04/28 01:42:39;;;;;;;26.88;18.52;;;;;;;11.50;71.19;99477.38;5033331;28;20030;-82
2021/04/28 01:45:05;;;;;;;22.65;17.88;;;;;;;11.40;71.14;99473.06;5033300;28;20383;-81
2021/04/28 01:47:31;;;;;;;26.35;18.10;;;;;;;11.35;71.43;99465.56;5032907;28;20433;-81
2021/04/28 01:49:57;;;;;;;24.40;18.35;;;;;;;11.34;71.59;99469.16;5033103;28;20048;-81
2021/04/28 01:52:23;;;;;;;30.25;19.60;;;;;;;11.27;72.17;99466.22;5033047;28;20502;-82
2021/04/28 01:54:49;;;;;;;28.45;19.15;;;;;;;11.22;72.38;99472.84;5033143;28;20025;-82
2021/04/28 01:57:15;;;;;;;28.70;18.05;;;;;;;11.34;71.71;99463.91;5033051;28;20026;-82
2021/04/28 01:59:41;;;;;;;26.58;19.17;;;;;;;11.19;72.16;99462.59;5032923;28;20025;-82
2021/04/28 02:02:09;;;;;;;27.90;19.05;;;;;;;11.40;71.95;99463.38;5032339;28;20021;-82
2021/04/28 02:04:36;;;;;;;26.40;18.90;;;;;;;11.31;72.07;99472.06;5030811;28;20037;-82
2021/04/28 02:07:02;;;;;;;27.95;19.33;;;;;;;11.17;72.11;99481.13;5032748;28;20048;-82
2021/04/28 02:09:27;;;;;;;27.08;19.55;;;;;;;11.02;72.87;99474.53;5031393;28;20017;-81
2021/04/28 02:11:53;;;;;;;30.38;19.95;;;;;;;11.19;72.01;99478.38;5044235;23;20578;-83
2021/04/28 02:14:22;;;;;;;28.15;19.13;;;;;;;11.18;72.54;99481.97;5031916;28;20026;-83
2021/04/28 02:16:49;;;;;;;29.35;20.00;;;;;;;11.24;72.24;99486.69;5032585;28;20039;-82
2021/04/28 02:19:16;;;;;;;29.35;19.80;;;;;;;11.27;72.24;99491.66;5031331;28;20091;-83
2021/04/28 02:21:45;;;;;;;28.52;20.02;;;;;;;11.38;71.87;99488.16;5033111;28;20043;-84
2021/04/28 02:24:13;;;;;;;28.20;19.85;;;;;;;11.40;71.82;99491.47;5032706;28;20036;-83
2021/04/28 02:26:40;;;;;;;28.10;18.55;;;;;;;11.08;72.85;99497.69;5032464;28;20032;-82
2021/04/28 02:29:05;;;;;;;26.77;20.20;;;;;;;11.21;72.19;99500.91;5032809;28;20144;-83
2021/04/28 02:31:31;;;;;;;30.15;18.90;;;;;;;11.30;73.04;99504.56;5032568;28;20065;-83
2021/04/28 02:33:56;;;;;;;25.30;17.58;;;;;;;11.28;72.12;99502.06;5031173;28;20037;-82
2021/04/28 02:36:25;;;;;;;27.35;18.70;;;;;;;10.96;73.48;99498.69;5031481;28;20029;-83
2021/04/28 02:38:53;;;;;;;31.58;18.73;;;;;;;11.31;72.45;99493.94;5032649;28;20025;-83
2021/04/28 02:41:21;;;;;;;26.15;18.98;;;;;;;11.07;72.75;99486.31;5032507;28;20068;-83
2021/04/28 02:43:47;;;;;;;25.60;18.30;;;;;;;11.02;72.66;99487.66;5032618;28;20079;-83
2021/04/28 02:46:15;;;;;;;27.40;18.10;;;;;;;10.97;72.64;99484.59;5030791;28;20044;-83
2021/04/28 02:48:47;;;;;;;21.63;16.30;;;;;;;10.88;73.80;99483.56;5012797;28;20040;-82
2021/04/28 02:51:12;;;;;;;23.25;15.00;;;;;;;10.65;74.91;99486.34;5012671;28;20022;-83
2021/04/28 02:53:42;;;;;;;23.33;16.05;;;;;;;10.85;73.91;99486.47;5012654;28;20091;-83
2021/04/28 02:56:08;;;;;;;26.75;17.20;;;;;;;10.62;75.23;99486.56;5012733;28;20053;-84
2021/04/28 02:58:33;;;;;;;21.83;15.77;;;;;;;10.78;74.71;99483.53;5012579;28;20056;-84
2021/04/28 03:00:59;;;;;;;22.73;16.30;;;;;;;10.74;75.22;99479.47;5012706;28;20476;-84
2021/04/28 03:03:25;;;;;;;23.65;15.15;;;;;;;10.82;75.17;99486.72;5032216;28;20040;-84
2021/04/28 03:05:52;;;;;;;25.63;15.88;;;;;;;10.57;75.82;99477.44;5032360;28;20057;-83
2021/04/28 03:08:18;;;;;;;23.27;14.88;;;;;;;10.73;76.79;99482.25;5030914;28;20025;-84
2021/04/28 03:10:45;;;;;;;20.55;13.70;;;;;;;10.66;77.85;99485.38;5031435;28;20549;-83
2021/04/28 03:13:11;;;;;;;25.17;15.23;;;;;;;10.84;76.66;99490.03;5032240;28;20108;-84
2021/04/28 03:15:37;;;;;;;23.38;15.18;;;;;;;10.90;77.51;99479.06;5031265;28;20105;-84
2021/04/28 03:18:02;;;;;;;19.92;14.23;;;;;;;10.63;79.16;99477.75;5010835;28;20026;-83
2021/04/28 03:20:29;;;;;;;20.83;13.82;;;;;;;10.74;78.85;99476.84;5012432;28;20026;-83
2021/04/28 03:22:54;;;;;;;16.48;12.25;;;;;;;10.89;77.75;99482.63;5012254;28;20040;-83
2021/04/28 03:25:20;;;;;;;19.83;12.90;;;;;;;10.65;79.22;99480.25;5011047;28;20025;-83
2021/04/28 03:27:45;;;;;;;15.85;11.40;;;;;;;10.83;78.56;99483.97;5012334;28;20084;-81
2021/04/28 03:30:11;;;;;;;23.70;13.38;;;;;;;11.01;77.86;99484.22;5010643;28;20361;-82
2021/04/28 03:32:36;;;;;;;17.98;13.45;;;;;;;10.81;79.19;99474.56;5027098;28;20038;-81
2021/04/28 03:35:03;;;;;;;22.80;13.27;;;;;;;10.99;78.92;99472.19;5010520;28;20476;-82
2021/04/28 03:37:28;;;;;;;22.77;15.43;;;;;;;10.72;79.47;99478.78;5012504;28;20026;-81
2021/04/28 03:39:53;;;;;;;25.35;15.70;;;;;;;10.64;80.91;99482.06;5015980;28;20033;-81
2021/04/28 03:42:22;;;;;;;26.50;17.45;;;;;;;10.63;79.98;99488.25;5015691;28;20022;-81
2021/04/28 03:44:47;;;;;;;30.02;18.58;;;;;;;10.51;81.36;99490.09;5015782;28;20022;-81
2021/04/28 03:47:12;;;;;;;28.20;18.73;;;;;;;10.65;80.89;99488.97;5028698;28;20036;-82
2021/04/28 03:49:38;;;;;;;28.70;19.70;;;;;;;10.81;79.77;99483.25;5035457;28;20021;-82
2021/04/28 03:52:03;;;;;;;29.08;19.80;;;;;;;10.59;81.08;99486.84;5035585;28;20049;-82
2021/04/28 03:54:29;;;;;;;27.42;17.38;;;;;;;10.59;80.96;99481.59;5035356;28;20025;-82
2021/04/28 03:56:54;;;;;;;27.02;18.55;;;;;;;10.48;81.40;99481.63;5035285;28;20036;-82
2021/04/28 03:59:20;;;;;;;29.13;17.83;;;;;;;10.48;81.45;99479.00;5035485;28;20033;-81
2021/04/28 04:01:45;;;;;;;29.45;17.60;;;;;;;10.15;81.75;99499.16;5023721;28;20038;-81
2021/04/28 04:04:10;;;;;;;30.73;18.33;;;;;;;10.13;81.43;99493.22;5015476;28;20437;-81
2021/04/28 04:06:36;;;;;;;29.23;18.27;;;;;;;10.20;82.40;99502.22;5015325;28;20087;-81
2021/04/28 04:09:02;;;;;;;35.70;21.50;;;;;;;10.21;81.71;99508.31;5015556;28;20266;-82
2021/04/28 04:11:28;;;;;;;35.90;22.55;;;;;;;10.11;81.26;99502.97;5015748;28;20041;-82
2021/04/28 04:13:53;;;;;;;35.70;22.08;;;;;;;9.97;81.51;99511.94;5015292;28;20018;-82
2021/04/28 04:16:18;;;;;;;37.65;24.00;;;;;;;9.57;82.40;99509.03;5024688;28;20033;-82
2021/04/28 04:18:44;;;;;;;33.85;23.35;;;;;;;9.50;82.55;99504.25;5034978;28;20036;-83
2021/04/28 04:21:09;;;;;;;38.38;24.00;;;;;;;9.59;82.42;99507.09;5034915;28;20033;-82
2021/04/28 04:23:35;;;;;;;42.22;23.33;;;;;;;9.20;83.46;99502.22;5033789;28;20029;-82
2021/04/28 04:26:00;;;;;;;38.50;23.23;;;;;;;9.53;82.01;99504.00;5034715;28;20076;-82
2021/04/28 04:28:26;;;;;;;36.05;23.88;;;;;;;9.30;82.32;99507.56;5034922;28;20025;-82
2021/04/28 04:30:52;;;;;;;39.28;23.75;;;;;;;9.38;82.00;99502.59;5029927;28;20388;-81
2021/04/28 04:33:18;;;;;;;36.25;24.95;;;;;;;9.30;83.25;99504.94;5034700;28;20450;-82
2021/04/28 04:35:45;;;;;;;35.47;22.77;;;;;;;9.20;82.81;99501.38;5034635;28;20411;-81
2021/04/28 04:38:16;;;;;;;42.33;22.83;;;;;;;9.10;82.39;99496.84;5034729;28;20035;-82
2021/04/28 04:40:41;;;;;;;36.40;23.08;;;;;;;9.24;82.07;99497.56;5033390;28;20025;-82
2021/04/28 04:43:07;;;;;;;33.47;21.90;;;;;;;9.46;82.10;99500.22;5034422;28;20029;-82
2021/04/28 04:45:34;;;;;;;34.72;23.45;;;;;;;9.33;81.95;99505.56;5026776;28;20431;-82
2021/04/28 04:48:03;;;;;;;40.05;21.92;;;;;;;8.77;83.05;99502.84;5015643;28;20076;-82
2021/04/28 04:50:29;;;;;;;34.63;22.58;;;;;;;9.23;82.20;99506.38;5014215;28;20088;-82
2021/04/28 04:52:55;;;;;;;35.17;21.70;;;;;;;9.17;82.12;99506.88;5014532;28;20030;-82
2021/04/28 04:55:21;;;;;;;33.35;21.10;;;;;;;9.31;82.02;99498.78;5014376;28;20034;-82
2021/04/28 04:57:48;;;;;;;30.23;20.92;;;;;;;9.24;81.47;99501.03;5014451;28;20066;-83
2021/04/28 05:00:14;;;;;;;32.05;20.33;;;;;;;9.39;80.34;99498.19;5016855;28;20029;-82
2021/04/28 05:02:39;;;;;;;30.95;19.27;;;;;;;9.33;80.57;99492.44;5034168;28;20112;-82
2021/04/28 05:05:06;;;;;;;27.98;18.52;;;;;;;9.50;80.70;99501.63;5034261;28;20033;-82
2021/04/28 05:07:32;;;;;;;29.50;20.50;;;;;;;8.87;81.30;99498.59;5032698;28;20532;-82
2021/04/28 05:09:57;;;;;;;27.05;17.88;;;;;;;8.81;80.07;99495.63;5020692;28;20117;-82
2021/04/28 05:12:22;;;;;;;31.40;20.23;;;;;;;8.65;80.10;99502.00;5048726;23;20098;-83
2021/04/28 05:14:48;;;;;;;30.25;18.92;;;;;;;8.69;80.35;99492.97;5053839;28;20021;-83
2021/04/28 05:17:13;;;;;;;24.45;17.80;;;;;;;8.51;80.36;99494.31;5053778;28;20029;-83
2021/04/28 05:19:39;;;;;;;27.08;19.00;;;;;;;8.84;80.61;99485.72;5052513;28;20364;-83
2021/04/28 05:22:04;;;;;;;25.17;17.73;;;;;;;8.71;80.65;99491.06;5053619;28;20027;-83
2021/04/28 05:24:29;;;;;;;24.83;17.98;;;;;;;8.66;79.96;99492.34;5052857;28;20506;-82
2021/04/28 05:26:55;;;;;;;25.15;16.58;;;;;;;8.46;80.64;99493.84;5052214;28;20025;-83
2021/04/28 05:29:20;;;;;;;30.35;16.88;;;;;;;8.45;80.27;99497.38;5053355;28;20486;-82
2021/04/28 05:31:45;;;;;;;28.02;18.27;;;;;;;8.73;80.39;99499.63;5053272;28;20049;-83
2021/04/28 05:34:11;;;;;;;25.70;16.15;;;;;;;8.47;79.76;99498.97;5053414;28;20486;-83
2021/04/28 05:36:36;;;;;;;26.60;17.15;;;;;;;8.74;78.34;99498.66;5053495;28;20055;-83
2021/04/28 05:39:03;;;;;;;25.85;17.65;;;;;;;8.64;81.00;99502.94;5047161;28;20025;-83
2021/04/28 05:41:28;;;;;;;27.35;16.90;;;;;;;8.76;80.75;99502.97;5031769;28;20060;-83
2021/04/28 05:43:54;;;;;;;24.70;16.60;;;;;;;8.93;79.52;99508.59;5033366;28;20456;-83
2021/04/28 05:46:19;;;;;;;24.08;15.68;;;;;;;8.66;79.51;99503.66;5033368;28;20030;-83
2021/04/28 05:48:45;;;;;;;22.40;15.95;;;;;;;8.71;80.03;99505.94;5033117;28;20095;-83
2021/04/28 05:51:11;;;;;;;22.17;15.68;;;;;;;8.79;80.28;99507.97;5033237;28;20029;-83
2021/04/28 05:53:36;;;;;;;24.20;16.08;;;;;;;8.91;80.34;99496.59;5036065;28;20032;-83
2021/04/28 05:56:03;;;;;;;23.70;15.73;;;;;;;8.85;81.20;99507.53;5052928;28;20025;-83
2021/04/28 05:58:29;;;;;;;23.77;15.30;;;;;;;8.81;80.90;99506.09;5052899;28;20107;-83
2021/04/28 06:00:54;;;;;;;24.05;16.45;;;;;;;8.83;81.45;99510.25;5052023;28;20112;-83
2021/04/28 06:03:19;;;;;;;29.67;16.50;;;;;;;8.86;81.42;99510.00;5052838;28;20037;-83
2021/04/28 06:05:45;;;;;;;24.92;16.08;;;;;;;8.95;81.86;99508.50;5052774;28;20112;-83
2021/04/28 06:08:12;;;;;;;24.77;16.20;;;;;;;8.99;79.53;99514.34;5049470;28;20041;-83
2021/04/28 06:10:37;;;;;;;22.10;15.27;;;;;;;8.69;80.31;99511.28;5033678;28;20025;-83
2021/04/28 06:13:03;;;;;;;23.45;15.20;;;;;;;8.68;80.73;99514.00;5060277;23;20098;-83
2021/04/28 06:15:28;;;;;;;26.25;15.48;;;;;;;8.62;81.14;99512.66;5052799;28;20028;-83
2021/04/28 06:17:54;;;;;;;20.40;15.18;;;;;;;8.94;79.65;99509.44;5050780;28;20386;-82
2021/04/28 06:20:19;;;;;;;21.52;15.13;;;;;;;9.03;80.13;99510.53;5051821;28;20403;-82
2021/04/28 06:22:45;;;;;;;22.67;15.43;;;;;;;8.55;81.22;99511.47;5036757;28;20025;-83
2021/04/28 06:25:12;;;;;;;24.55;15.43;;;;;;;8.97;81.12;99511.81;5032706;28;20018;-83
2021/04/28 06:27:38;;;;;;;22.70;15.52;;;;;;;9.20;79.71;99504.00;5024368;28;20091;-83
2021/04/28 06:30:05;;;;;;;25.05;16.05;;;;;;;9.21;80.58;99497.81;5028672;28;20025;-81
2021/04/28 06:32:30;;;;;;;24.15;16.05;;;;;;;9.01;80.63;99500.16;5030892;28;20041;-82
2021/04/28 06:34:56;;;;;;;22.67;15.93;;;;;;;8.71;81.08;99491.06;5030538;28;20026;-82
2021/04/28 06:37:21;;;;;;;22.88;15.48;;;;;;;9.25;77.47;99507.09;5031223;28;20056;-82
2021/04/28 06:39:47;;;;;;;20.90;15.10;;;;;;;9.40;79.76;99503.31;5031435;28;20025;-83
2021/04/28 06:42:13;;;;;;;19.35;14.68;;;;;;;9.28;78.88;99499.00;5031903;28;20032;-83
2021/04/28 06:44:39;;;;;;;21.90;14.57;;;;;;;9.50;77.26;99493.78;5027606;28;20112;-82
2021/04/28 06:47:04;;;;;;;19.05;14.10;;;;;;;9.73;77.30;99499.00;5031730;28;20380;-82
2021/04/28 06:49:29;;;;;;;19.30;13.98;;;;;;;9.87;76.93;99508.38;5032845;28;20029;-83
2021/04/28 06:51:55;;;;;;;20.23;14.13;;;;;;;9.68;78.65;99509.03;5029370;28;20468;-83
2021/04/28 06:54:20;;;;;;;21.42;14.32;;;;;;;10.14;76.80;99510.59;5031835;28;20021;-83
2021/04/28 06:56:46;;;;;;;19.05;14.45;;;;;;;10.28;76.33;99514.72;5027893;28;20447;-82
2021/04/28 06:59:15;;;;;;;26.23;17.50;;;;;;;11.19;76.21;99521.22;5030375;28;20030;-83
2021/04/28 07:01:41;;;;;;;16.00;13.02;;;;;;;11.14;73.68;99512.06;5030144;28;20053;-83
2021/04/28 07:04:07;;;;;;;18.63;14.05;;;;;;;11.01;72.77;99523.59;5029562;28;20065;-83
2021/04/28 07:06:32;;;;;;;19.58;14.00;;;;;;;11.15;74.15;99519.00;5027495;28;20036;-83
2021/04/28 07:08:58;;;;;;;17.77;13.30;;;;;;;11.60;72.38;99511.59;5030699;28;20025;-82
2021/04/28 07:11:23;;;;;;;17.75;13.32;;;;;;;11.56;72.44;99517.28;5031209;28;20140;-80
2021/04/28 07:13:49;;;;;;;22.70;13.40;;;;;;;11.04;74.44;99510.22;5029206;28;20013;-82
2021/04/28 07:16:14;;;;;;;18.58;13.27;;;;;;;11.23;72.29;99513.91;5031644;28;20491;-83
2021/04/28 07:18:39;;;;;;;22.90;12.75;;;;;;;11.23;70.56;99517.38;5030257;28;20034;-82
2021/04/28 07:21:05;;;;;;;14.48;12.50;;;;;;;10.89;73.37;99519.41;5029817;28;20021;-83
2021/04/28 07:23:30;;;;;;;15.77;12.73;;;;;;;10.91;74.53;99501.72;5031323;28;20100;-88
2021/04/28 07:25:56;;;;;;;28.30;13.88;;;;;;;11.55;77.20;99503.25;5033266;28;20021;-91
2021/04/28 07:28:21;;;;;;;19.52;15.40;;;;;;;11.80;78.84;99507.22;5033247;28;20025;-86
2021/04/28 07:30:46;;;;;;;16.42;12.65;;;;;;;11.84;71.06;99510.44;5032076;28;20056;-84
2021/04/28 07:33:12;;;;;;;15.73;12.43;;;;;;;11.68;73.05;99505.69;5029718;28;20044;-84
2021/04/28 07:35:37;;;;;;;14.95;11.27;;;;;;;11.66;70.61;99512.88;5030379;28;20068;-85
2021/04/28 07:38:03;;;;;;;20.65;15.00;;;;;;;10.99;74.99;99520.28;5033720;28;20387;-85
2021/04/28 07:40:28;;;;;;;18.85;14.15;;;;;;;11.30;72.58;99515.06;5030587;28;20388;-85
2021/04/28 07:43:11;;;;;;;18.20;12.88;;;;;;;11.23;73.83;99511.28;5032330;27;20390;-87
2021/04/28 07:45:37;;;;;;;20.33;13.52;;;;;;;11.18;74.33;99513.50;5032390;28;20460;-85
2021/04/28 07:48:07;;;;;;;20.13;14.10;;;;;;;11.37;74.27;99518.81;5035592;28;20034;-85
2021/04/28 07:50:33;;;;;;;21.35;13.95;;;;;;;11.80;71.93;99520.38;5029550;28;20095;-85
2021/04/28 07:52:59;;;;;;;19.33;15.05;;;;;;;11.94;71.07;99511.31;5029092;28;20096;-85
2021/04/28 07:55:24;;;;;;;18.27;14.48;;;;;;;12.81;69.51;99517.59;5028727;28;20029;-85
2021/04/28 07:57:49;;;;;;;19.70;15.18;;;;;;;13.06;66.36;99513.56;5029536;28;20109;-86
2021/04/28 08:00:16;;;;;;;16.98;12.90;;;;;;;13.31;66.36;99511.28;5020628;28;20033;-85
2021/04/28 08:02:41;;;;;;;18.58;13.80;;;;;;;13.16;67.81;99511.72;5013110;28;20460;-92
2021/04/28 08:05:07;;;;;;;19.20;12.85;;;;;;;12.96;66.33;99518.03;5026639;28;20032;-85
2021/04/28 08:07:34;;;;;;;16.38;11.68;;;;;;;12.79;64.05;99527.47;5027666;28;20486;-85
2021/04/28 08:09:59;;;;;;;15.65;12.38;;;;;;;12.55;66.06;99527.88;5028518;28;20070;-85
2021/04/28 08:12:24;;;;;;;14.05;11.45;;;;;;;12.55;67.07;99527.88;5027660;28;20057;-86
2021/04/28 08:14:50;;;;;;;15.23;12.15;;;;;;;12.35;68.58;99521.78;5017648;28;20022;-85
2021/04/28 08:17:15;;;;;;;18.77;11.77;;;;;;;12.13;68.31;99536.03;5017174;28;20030;-85
2021/04/28 08:19:41;;;;;;;15.45;12.18;;;;;;;12.09;68.34;99530.19;5027463;28;20095;-86
2021/04/28 08:22:06;;;;;;;17.30;12.55;;;;;;;12.08;68.73;99531.16;5016650;28;20037;-85
2021/04/28 08:24:31;;;;;;;13.32;10.98;;;;;;;12.06;69.06;99535.72;5023212;28;20069;-86
2021/04/28 08:26:57;;;;;;;16.83;13.13;;;;;;;11.92;70.85;99534.28;5013299;28;20022;-85
2021/04/28 08:29:23;;;;;;;13.05;11.65;;;;;;;12.22;68.57;99538.69;5026519;28;20022;-84
2021/04/28 08:31:48;;;;;;;19.30;14.27;;;;;;;12.09;69.94;99540.72;5028138;28;20030;-84
2021/04/28 08:34:14;;;;;;;19.60;12.30;;;;;;;12.30;68.46;99528.28;5025110;28;20022;-85
2021/04/28 08:36:39;;;;;;;15.60;12.23;;;;;;;11.95;69.75;99522.66;5028118;28;20116;-85
2021/04/28 08:39:08;;;;;;;17.42;12.15;;;;;;;12.05;69.81;99534.06;5025630;28;20025;-85
2021/04/28 08:41:35;;;;;;;13.82;11.80;;;;;;;12.01;69.52;99530.03;5025322;28;20032;-85
2021/04/28 08:44:03;;;;;;;17.05;11.63;;;;;;;11.99;69.57;99537.25;5046685;28;20030;-84
2021/04/28 08:46:28;;;;;;;15.98;11.98;;;;;;;12.08;70.11;99528.50;5038831;28;20095;-84
2021/04/28 08:48:54;;;;;;;18.20;13.10;;;;;;;11.48;70.11;99531.06;5031862;28;20034;-85
2021/04/28 08:51:21;;;;;;;17.40;13.10;;;;;;;11.34;74.58;99547.19;5043946;28;20037;-84
2021/04/28 08:53:48;;;;;;;20.08;12.98;;;;;;;11.54;73.15;99533.16;5019992;28;20087;-84
2021/04/28 08:56:13;;;;;;;17.45;12.70;;;;;;;11.78;73.81;99532.84;5032204;28;20108;-83
2021/04/28 08:58:38;;;;;;;15.77;12.30;;;;;;;12.11;72.46;99544.06;5033491;28;20109;-83
2021/04/28 09:01:04;;;;;;;18.98;12.15;;;;;;;12.40;69.98;99537.97;5033858;28;20036;-84
2021/04/28 09:03:59;;;;;;;15.85;12.25;;;;;;;12.89;69.40;99541.44;5014543;28;20104;-84
2021/04/28 09:06:32;;;;;;;19.55;11.93;;;;;;;12.46;70.83;99542.69;5008477;28;20038;-84
2021/04/28 09:09:06;;;;;;;17.42;12.15;;;;;;;12.54;70.06;99545.50;5026546;28;20049;-84
2021/04/28 09:11:40;;;;;;;21.08;13.80;;;;;;;12.96;67.44;99542.56;5052239;22;20381;-85
2021/04/28 09:14:10;;;;;;;20.67;13.35;;;;;;;12.95;66.31;99548.78;5073588;28;20040;-84
2021/04/28 09:16:37;;;;;;;18.90;13.27;;;;;;;12.80;69.45;99543.13;5079989;28;20020;-82
2021/04/28 09:19:02;;;;;;;20.02;13.05;;;;;;;13.12;67.04;99539.34;5073844;28;20075;-82
2021/04/28 09:22:04;;;;;;;20.70;12.75;;;;;;;14.00;66.28;99536.41;5064645;28;20498;-83
2021/04/28 09:24:32;;;;;;;18.65;13.27;;;;;;;13.97;66.21;99539.34;5068262;28;20497;-83
2021/04/28 09:26:58;;;;;;;22.23;11.95;;;;;;;14.62;63.25;99529.47;5073259;28;20127;-82
2021/04/28 09:29:27;;;;;;;21.70;13.13;;;;;;;14.66;63.77;99540.56;5073016;28;20032;-82
2021/04/28 09:31:59;;;;;;;21.70;13.02;;;;;;;15.41;62.54;99551.53;5071323;28;20101;-82
2021/04/28 09:34:35;;;;;;;;;;;;;;;16.25;60.21;99534.03;5073459;28;20031;-83
2021/04/28 09:37:13;;;;;;;26.00;12.88;;;;;;;16.23;58.12;99530.72;5073543;28;19962;-82
2021/04/28 09:39:50;;;;;;;19.00;11.80;;;;;;;16.60;58.49;99531.28;5054684;28;20052;-83
2021/04/28 09:42:18;;;;;;;21.92;12.18;;;;;;;17.02;57.73;99541.75;5072730;28;20029;-82
2021/04/28 09:44:49;;;;;;;15.82;11.20;;;;;;;17.75;53.56;99537.28;5050938;28;20271;-82
2021/04/28 09:47:22;;;;;;;17.60;12.07;;;;;;;18.20;52.14;99534.91;5065744;28;20028;-82
2021/04/28 09:49:47;;;;;;;17.52;10.57;;;;;;;18.77;47.26;99536.34;5069834;28;20510;-82
2021/04/28 09:52:15;;;;;;;16.30;10.68;;;;;;;17.73;51.87;99531.31;5072527;28;20054;-82
2021/04/28 09:54:42;;;;;;;20.48;11.70;;;;;;;18.73;51.36;99537.72;5072659;28;20033;-82
2021/04/28 09:57:08;;;;;;;18.90;11.18;;;;;;;18.13;50.77;99534.78;5072724;28;20150;-82
2021/04/28 09:59:41;;;;;;;26.98;11.38;;;;;;;17.63;51.08;99543.94;5072413;28;20071;-82
2021/04/28 10:02:07;;;;;;;15.18;10.35;;;;;;;16.83;50.96;99529.66;5052049;28;20426;-82
2021/04/28 10:04:32;;;;;;;16.60;10.60;;;;;;;16.24;53.87;99542.97;5071526;28;20032;-82
2021/04/28 10:06:58;;;;;;;19.50;10.45;;;;;;;16.60;52.79;99542.69;5072542;28;20071;-82
2021/04/28 10:09:37;;;;;;;20.92;11.10;;;;;;;16.52;53.35;99541.88;5073165;28;20066;-82
2021/04/28 10:12:13;;;;;;;20.35;11.07;;;;;;;16.51;52.78;99549.00;5073429;28;20101;-82
2021/04/28 10:14:39;;;;;;;17.50;10.68;;;;;;;16.01;54.92;99542.72;5051143;28;20024;-82
2021/04/28 10:17:07;;;;;;;17.00;10.75;;;;;;;15.88;53.31;99537.06;5073289;28;20146;-82
2021/04/28 10:19:34;;;;;;;14.10;10.35;;;;;;;15.94;54.18;99541.72;5053987;28;20032;-82
2021/04/28 10:22:06;;;;;;;16.15;10.48;;;;;;;15.57;54.94;99544.69;5071347;28;20028;-82
2021/04/28 10:24:32;;;;;;;17.15;10.85;;;;;;;15.07;56.44;99548.84;5071668;28;20064;-81
2021/04/28 10:26:58;;;;;;;17.70;11.98;;;;;;;14.90;56.23;99545.22;5072131;28;20075;-81
2021/04/28 10:29:25;;;;;;;17.65;11.27;;;;;;;14.44;58.31;99544.47;5071890;28;20032;-81
2021/04/28 10:31:52;;;;;;;21.20;11.82;;;;;;;14.27;59.19;99536.38;5071585;28;20044;-82
2021/04/28 10:34:31;;;;;;;20.35;11.50;;;;;;;13.72;58.96;99530.28;5072021;28;20402;-82
2021/04/28 10:36:59;;;;;;;17.58;10.88;;;;;;;13.89;60.25;99543.53;5056716;28;20059;-82
2021/04/28 10:39:26;;;;;;;16.63;11.18;;;;;;;14.46;61.30;99534.59;5071984;28;20059;-82
2021/04/28 10:41:53;;;;;;;17.17;11.32;;;;;;;13.85;62.84;99536.06;5070284;28;20021;-82
2021/04/28 10:44:31;;;;;;;18.10;11.43;;;;;;;13.97;61.59;99539.34;5052015;28;20048;-81
2021/04/28 10:47:21;;;;;;;17.02;10.55;;;;;;;13.83;61.02;99538.84;5071220;28;20020;-82
2021/04/28 10:50:08;;;;;;;19.73;11.60;;;;;;;13.57;62.78;99546.59;5062604;28;20078;-82
2021/04/28 10:52:44;;;;;;;17.30;10.70;;;;;;;13.63;62.80;99550.47;5069093;28;20478;-82
2021/04/28 10:55:50;;;;;;;15.93;9.68;;;;;;;13.59;61.75;99546.47;5070016;28;20431;-82
2021/04/28 10:58:32;;;;;;;16.75;10.13;;;;;;;13.42;59.25;99562.03;5068022;28;20082;-82
2021/04/28 11:01:04;;;;;;;21.83;10.60;;;;;;;13.02;61.87;99560.44;5071176;28;20281;-82
2021/04/28 11:03:36;;;;;;;16.27;10.10;;;;;;;13.25;61.70;99557.47;5071379;28;20096;-82
2021/04/28 11:06:17;;;;;;;12.88;10.02;;;;;;;13.48;61.50;99565.91;5071016;28;20056;-82
2021/04/28 11:08:43;;;;;;;14.68;10.75;;;;;;;12.72;64.21;99568.47;5071604;28;20027;-82
2021/04/28 11:11:42;;;;;;;18.98;11.48;;;;;;;12.95;63.59;99569.88;5072046;28;20382;-82
2021/04/28 11:14:10;;;;;;;21.80;10.18;;;;;;;13.07;63.58;99568.78;5071675;28;20032;-82
2021/04/28 11:16:47;;;;;;;13.35;9.95;;;;;;;13.37;64.42;99561.66;5071715;28;20382;-82
2021/04/28 11:19:26;;;;;;;13.70;11.38;;;;;;;13.15;66.17;99568.06;5071788;28;20025;-82